createdAt,value
2023-04-21T00:02:04.699Z,100654.25
2023-04-21T00:04:35.047Z,100641.34
2023-04-21T00:07:06.978Z,100652.16
2023-04-21T00:09:36.963Z,100646.53
2023-04-21T00:12:07.738Z,100635.63
2023-04-21T00:14:40.363Z,100643.28
2023-04-21T00:17:10.355Z,100641.63
2023-04-21T00:19:40.744Z,100640.00
2023-04-21T00:22:15.420Z,100633.56
2023-04-21T00:24:45.683Z,100629.13
2023-04-21T00:27:16.144Z,100628.31
2023-04-21T00:29:45.847Z,100634.31
2023-04-21T00:32:15.513Z,100625.44
2023-04-21T00:34:45.173Z,100630.25
2023-04-21T00:37:17.445Z,100622.56
2023-04-21T00:39:47.713Z,100631.00
2023-04-21T00:42:18.424Z,100631.41
2023-04-21T00:44:48.151Z,100631.78
2023-04-21T00:47:18.040Z,100630.16
2023-04-21T00:49:48.705Z,100630.16
2023-04-21T00:52:21.757Z,100630.50
2023-04-21T00:54:52.270Z,100628.09
2023-04-21T00:57:23.687Z,100632.91
2023-04-21T00:59:53.534Z,100636.94
2023-04-21T01:02:25.042Z,100637.25
2023-04-21T01:04:54.955Z,100643.28
2023-04-21T01:07:28.699Z,100640.00
2023-04-21T01:10:00.180Z,100644.03
2023-04-21T01:12:30.131Z,100649.25
2023-04-21T01:15:00.695Z,100644.34
2023-04-21T01:17:31.751Z,100647.56
2023-04-21T01:20:11.204Z,100642.28
2023-04-21T01:22:45.442Z,100632.97
2023-04-21T01:25:15.617Z,100632.53
2023-04-21T01:27:45.084Z,100640.53
2023-04-21T01:30:15.193Z,100640.91
2023-04-21T01:32:45.066Z,100632.38
2023-04-21T01:35:15.122Z,100623.53
2023-04-21T01:37:47.346Z,100627.53
2023-04-21T01:40:17.471Z,100604.53
2023-04-21T01:42:47.832Z,100609.38
2023-04-21T01:45:18.038Z,100602.13
2023-04-21T01:47:48.079Z,100607.31
2023-04-21T01:50:18.570Z,100595.59
2023-04-21T01:52:50.290Z,100599.59
2023-04-21T01:55:21.034Z,100604.38
2023-04-21T01:57:51.350Z,100605.13
2023-04-21T02:00:22.127Z,100606.31
2023-04-21T02:02:52.276Z,100608.66
2023-04-21T02:05:22.651Z,100611.88
2023-04-21T02:07:54.885Z,100606.97
2023-04-21T02:10:25.364Z,100604.91
2023-04-21T02:12:55.062Z,100612.03
2023-04-21T02:15:25.277Z,100604.69
2023-04-21T02:17:54.992Z,100601.44
2023-04-21T02:20:25.218Z,100602.19
2023-04-21T02:22:57.272Z,100603.28
2023-04-21T02:25:27.121Z,100595.97
2023-04-21T02:28:03.310Z,100595.09
2023-04-21T02:30:33.450Z,100587.78
2023-04-21T02:33:03.684Z,100588.50
2023-04-21T02:35:34.912Z,100590.09
2023-04-21T02:38:09.262Z,100596.88
2023-04-21T02:40:39.478Z,100596.09
2023-04-21T02:43:09.657Z,100594.47
2023-04-21T02:45:41.067Z,100602.06
2023-04-21T02:48:11.590Z,100596.81
2023-04-21T02:50:42.556Z,100606.06
2023-04-21T02:53:14.283Z,100602.00
2023-04-21T02:55:44.319Z,100602.75
2023-04-21T02:58:14.601Z,100611.19
2023-04-21T03:00:45.104Z,100610.75
2023-04-21T03:03:14.859Z,100618.38
2023-04-21T03:05:45.218Z,100616.28
2023-04-21T03:08:17.311Z,100620.28
2023-04-21T03:10:46.846Z,100615.41
2023-04-21T03:13:17.578Z,100612.97
2023-04-21T03:15:48.041Z,100620.59
2023-04-21T03:18:18.158Z,100607.25
2023-04-21T03:20:48.169Z,100614.06
2023-04-21T03:23:20.397Z,100615.25
2023-04-21T03:25:50.868Z,100618.81
2023-04-21T03:28:21.191Z,100616.38
2023-04-21T03:30:50.819Z,100615.94
2023-04-21T03:33:20.763Z,100616.75
2023-04-21T03:35:51.186Z,100622.75
2023-04-21T03:38:23.302Z,100619.09
2023-04-21T03:40:53.329Z,100627.13
2023-04-21T03:43:23.781Z,100620.66
2023-04-21T03:45:53.906Z,100631.09
2023-04-21T03:48:23.991Z,100624.63
2023-04-21T03:50:54.261Z,100637.53
2023-04-21T03:53:26.167Z,100640.34
2023-04-21T03:55:56.384Z,100643.16
2023-04-21T03:58:26.611Z,100644.00
2023-04-21T04:00:56.826Z,100647.59
2023-04-21T04:03:27.043Z,100644.78
2023-04-21T04:05:57.353Z,100642.78
2023-04-21T04:08:29.378Z,100644.78
2023-04-21T04:10:59.394Z,100648.41
2023-04-21T04:13:30.120Z,100649.25
2023-04-21T04:16:00.421Z,100656.50
2023-04-21T04:18:30.621Z,100652.84
2023-04-21T04:21:00.938Z,100653.69
2023-04-21T04:23:33.209Z,100654.94
2023-04-21T04:26:06.624Z,100660.19
2023-04-21T04:28:37.218Z,100673.91
2023-04-21T04:31:07.143Z,100674.69
2023-04-21T04:33:37.918Z,100663.00
2023-04-21T04:36:08.724Z,100657.38
2023-04-21T04:38:42.146Z,100658.19
2023-04-21T04:41:13.215Z,100661.00
2023-04-21T04:43:43.354Z,100680.72
2023-04-21T04:46:13.600Z,100676.72
2023-04-21T04:48:43.408Z,100675.88
2023-04-21T04:51:13.666Z,100673.97
2023-04-21T04:53:45.779Z,100671.63
2023-04-21T04:56:16.135Z,100679.28
2023-04-21T04:58:46.932Z,100670.50
2023-04-21T05:01:17.263Z,100674.19
2023-04-21T05:03:48.579Z,100683.09
2023-04-21T05:06:18.906Z,100682.69
2023-04-21T05:08:50.593Z,100681.97
2023-04-21T05:11:20.850Z,100686.03
2023-04-21T05:13:50.937Z,100687.31
2023-04-21T05:16:21.103Z,100695.00
2023-04-21T05:18:51.460Z,100699.44
2023-04-21T05:21:28.002Z,100695.84
2023-04-21T05:24:01.749Z,100704.28
2023-04-21T05:26:32.762Z,100712.72
2023-04-21T05:29:02.957Z,100707.88
2023-04-21T05:31:34.123Z,100705.91
2023-04-21T05:34:04.330Z,100706.72
2023-04-21T05:36:34.634Z,100691.84
2023-04-21T05:39:06.853Z,100705.06
2023-04-21T05:41:37.192Z,100701.47
2023-04-21T05:44:07.013Z,100701.09
2023-04-21T05:46:43.330Z,100702.25
2023-04-21T05:49:13.705Z,100701.09
2023-04-21T05:51:44.185Z,100695.44
2023-04-21T05:54:17.225Z,100700.34
2023-04-21T05:56:48.332Z,100704.41
2023-04-21T05:59:18.657Z,100702.06
2023-04-21T06:01:49.186Z,100702.13
2023-04-21T06:04:19.749Z,100717.44
2023-04-21T06:06:50.306Z,100723.16
2023-04-21T06:09:22.235Z,100714.41
2023-04-21T06:11:52.744Z,100714.13
2023-04-21T06:14:22.448Z,100711.38
2023-04-21T06:16:52.668Z,100714.72
2023-04-21T06:19:22.308Z,100717.63
2023-04-21T06:21:52.241Z,100722.94
2023-04-21T06:24:26.771Z,100726.66
2023-04-21T06:26:56.900Z,100727.06
2023-04-21T06:29:26.617Z,100721.09
2023-04-21T06:31:56.821Z,100722.78
2023-04-21T06:34:27.023Z,100719.66
2023-04-21T06:36:57.217Z,100726.25
2023-04-21T06:39:29.126Z,100712.72
2023-04-21T06:42:00.250Z,100712.03
2023-04-21T06:44:30.024Z,100710.19
2023-04-21T06:47:00.102Z,100722.03
2023-04-21T06:49:30.424Z,100716.97
2023-04-21T06:52:00.436Z,100722.34
2023-04-21T06:54:32.680Z,100705.16
2023-04-21T06:57:02.724Z,100712.16
2023-04-21T06:59:33.378Z,100711.06
2023-04-21T07:02:03.958Z,100707.16
2023-04-21T07:04:34.119Z,100708.88
2023-04-21T07:07:04.536Z,100707.75
2023-04-21T07:09:36.490Z,100715.88
2023-04-21T07:12:06.917Z,100714.31
2023-04-21T07:14:37.100Z,100705.09
2023-04-21T07:17:07.100Z,100701.88
2023-04-21T07:19:37.312Z,100705.94
2023-04-21T07:22:07.517Z,100702.75
2023-04-21T07:24:40.196Z,100709.63
2023-04-21T07:27:09.807Z,100706.06
2023-04-21T07:29:39.997Z,100701.25
2023-04-21T07:32:10.241Z,100704.50
2023-04-21T07:34:40.576Z,100711.41
2023-04-21T07:37:10.781Z,100707.84
2023-04-21T07:39:42.485Z,100712.34
2023-04-21T07:42:12.914Z,100710.00
2023-04-21T07:44:43.255Z,100701.66
2023-04-21T07:47:13.228Z,100696.91
2023-04-21T07:49:43.208Z,100709.47
2023-04-21T07:52:13.330Z,100716.44
2023-04-21T07:54:45.428Z,100709.63
2023-04-21T07:57:16.131Z,100711.69
2023-04-21T07:59:46.446Z,100710.09
2023-04-21T08:02:16.750Z,100701.63
2023-04-21T08:04:46.765Z,100699.59
2023-04-21T08:07:17.112Z,100708.91
2023-04-21T08:09:49.543Z,100706.09
2023-04-21T08:12:19.842Z,100708.53
2023-04-21T08:14:50.118Z,100706.56
2023-04-21T08:17:21.114Z,100708.25
2023-04-21T08:19:52.276Z,100712.31
2023-04-21T08:22:23.328Z,100695.41
2023-04-21T08:24:55.813Z,100699.09
2023-04-21T08:27:26.293Z,100694.31
2023-04-21T08:29:56.301Z,100702.44
2023-04-21T08:32:27.019Z,100701.28
2023-04-21T08:34:57.933Z,100701.31
2023-04-21T08:37:28.237Z,100707.06
2023-04-21T08:40:00.399Z,100701.88
2023-04-21T08:42:30.289Z,100702.69
2023-04-21T08:45:00.699Z,100701.53
2023-04-21T08:47:32.066Z,100690.66
2023-04-21T08:50:02.137Z,100690.69
2023-04-21T08:52:32.261Z,100692.34
2023-04-21T08:55:05.196Z,100689.53
2023-04-21T08:57:35.084Z,100680.28
2023-04-21T09:00:07.885Z,100683.16
2023-04-21T09:03:01.197Z,100678.75
2023-04-21T09:05:36.041Z,100678.75
2023-04-21T09:08:13.007Z,100671.50
2023-04-21T09:10:51.918Z,100673.94
2023-04-21T09:13:23.898Z,100663.03
2023-04-21T09:15:55.039Z,100658.22
2023-04-21T09:18:27.320Z,100653.78
2023-04-21T09:21:11.045Z,100661.50
2023-04-21T09:23:50.374Z,100656.25
2023-04-21T09:26:24.548Z,100662.31
2023-04-21T09:28:56.013Z,100644.94
2023-04-21T09:31:29.431Z,100644.13
2023-04-21T09:34:01.324Z,100633.22
2023-04-21T09:36:33.475Z,100635.69
2023-04-21T09:41:42.240Z,100634.88
2023-04-21T09:44:12.477Z,100636.50
2023-04-21T09:46:45.947Z,100634.09
2023-04-21T09:49:19.566Z,100641.38
2023-04-21T09:52:16.958Z,100632.88
2023-04-21T09:54:51.673Z,100635.31
2023-04-21T09:57:28.632Z,100636.13
2023-04-21T10:00:05.635Z,100632.88
2023-04-21T10:02:43.878Z,100633.69
2023-04-21T10:05:14.754Z,100638.16
2023-04-21T10:07:46.759Z,100634.09
2023-04-21T10:10:26.347Z,100629.28
2023-04-21T10:12:58.587Z,100632.91
2023-04-21T10:15:34.104Z,100624.03
2023-04-21T10:18:20.346Z,100624.84
2023-04-21T10:20:58.312Z,100622.03
2023-04-21T10:23:40.114Z,100625.28
2023-04-21T10:26:15.589Z,100624.06
2023-04-21T10:28:51.049Z,100626.91
2023-04-21T10:31:24.533Z,100630.13
2023-04-21T10:34:17.787Z,100624.88
2023-04-21T10:37:16.640Z,100616.78
2023-04-21T10:39:58.231Z,100623.25
2023-04-21T10:42:31.667Z,100629.75
2023-04-21T10:45:14.113Z,100630.97
2023-04-21T10:47:51.866Z,100624.50
2023-04-21T10:50:30.782Z,100622.47
2023-04-21T10:53:11.935Z,100606.69
2023-04-21T10:55:43.795Z,100606.69
2023-04-21T10:58:13.543Z,100601.00
2023-04-21T11:00:45.990Z,100603.06
2023-04-21T11:03:16.651Z,100597.38
2023-04-21T11:05:46.582Z,100594.13
2023-04-21T11:08:18.277Z,100597.38
2023-04-21T11:10:55.587Z,100593.34
2023-04-21T11:13:34.174Z,100590.88
2023-04-21T11:16:10.604Z,100584.44
2023-04-21T11:18:43.924Z,100578.78
2023-04-21T11:21:18.625Z,100579.56
2023-04-21T11:23:56.537Z,100588.47
2023-04-21T11:26:39.003Z,100578.78
2023-04-21T11:29:12.573Z,100584.44
2023-04-21T11:31:46.481Z,100576.75
2023-04-21T11:34:19.767Z,100575.94
2023-04-21T11:36:51.464Z,100569.44
2023-04-21T11:39:24.344Z,100575.13
2023-04-21T11:41:54.913Z,100577.56
2023-04-21T11:44:36.614Z,100571.91
2023-04-21T11:47:19.272Z,100575.53
2023-04-21T11:49:52.378Z,100582.81
2023-04-21T11:52:28.632Z,100576.72
2023-04-21T11:55:01.783Z,100575.47
2023-04-21T11:57:34.741Z,100580.31
2023-04-21T12:00:08.620Z,100585.19
2023-04-21T12:02:41.371Z,100582.72
2023-04-21T12:05:15.047Z,100578.28
2023-04-21T12:07:48.429Z,100579.09
2023-04-21T12:10:22.804Z,100574.63
2023-04-21T12:12:53.776Z,100591.63
2023-04-21T12:15:24.591Z,100588.38
2023-04-21T12:17:57.609Z,100587.56
2023-04-21T12:20:32.099Z,100586.75
2023-04-21T12:23:01.792Z,100590.78
2023-04-21T12:25:31.962Z,100585.53
2023-04-21T12:28:02.685Z,100579.06
2023-04-21T12:30:33.652Z,100582.28
2023-04-21T12:33:07.967Z,100580.28
2023-04-21T12:35:38.457Z,100583.47
2023-04-21T12:38:08.303Z,100584.69
2023-04-21T12:40:38.687Z,100569.72
2023-04-21T12:43:08.868Z,100572.56
2023-04-21T12:45:39.579Z,100573.34
2023-04-21T12:48:11.987Z,100573.75
2023-04-21T12:50:42.171Z,100576.16
2023-04-21T12:53:12.294Z,100564.44
2023-04-21T12:55:49.757Z,100561.22
2023-04-21T12:58:27.598Z,100560.78
2023-04-21T13:01:01.688Z,100560.38
2023-04-21T13:03:33.615Z,100566.81
2023-04-21T13:06:04.369Z,100565.19
2023-04-21T13:08:34.643Z,100568.44
2023-04-21T13:11:04.580Z,100566.81
2023-04-21T13:13:34.420Z,100562.34
2023-04-21T13:16:04.771Z,100557.09
2023-04-21T13:18:38.021Z,100560.34
2023-04-21T13:21:08.108Z,100569.59
2023-04-21T13:23:37.853Z,100555.84
2023-04-21T13:26:08.872Z,100561.50
2023-04-21T13:28:39.852Z,100556.25
2023-04-21T13:31:10.308Z,100564.31
2023-04-21T13:33:42.125Z,100563.50
2023-04-21T13:36:13.650Z,100574.81
2023-04-21T13:38:44.416Z,100572.31
2023-04-21T13:41:15.136Z,100567.06
2023-04-21T13:43:55.131Z,100571.94
2023-04-21T13:46:25.745Z,100574.72
2023-04-21T13:48:58.495Z,100575.13
2023-04-21T13:51:28.409Z,100579.56
2023-04-21T13:53:58.407Z,100574.69
2023-04-21T13:56:28.168Z,100585.19
2023-04-21T13:58:59.783Z,100594.44
2023-04-21T14:01:29.952Z,100586.75
2023-04-21T14:04:01.362Z,100586.31
2023-04-21T14:06:31.574Z,100585.09
2023-04-21T14:09:01.840Z,100583.03
2023-04-21T14:11:31.943Z,100582.66
2023-04-21T14:14:09.473Z,100585.84
2023-04-21T14:16:40.676Z,100588.25
2023-04-21T14:19:12.469Z,100582.19
2023-04-21T14:21:42.016Z,100579.75
2023-04-21T14:24:12.495Z,100578.94
2023-04-21T14:26:42.621Z,100581.78
2023-04-21T14:29:12.930Z,100576.13
2023-04-21T14:31:46.880Z,100580.94
2023-04-21T14:34:19.248Z,100577.72
2023-04-21T14:36:50.356Z,100566.78
2023-04-21T14:39:20.593Z,100582.97
2023-04-21T14:41:50.392Z,100579.31
2023-04-21T14:44:20.538Z,100579.69
2023-04-21T14:47:01.444Z,100581.31
2023-04-21T14:49:38.488Z,100581.28
2023-04-21T14:52:09.810Z,100585.69
2023-04-21T14:54:40.067Z,100580.84
2023-04-21T14:57:18.802Z,100583.59
2023-04-21T14:59:51.538Z,100593.66
2023-04-21T15:02:23.335Z,100586.78
2023-04-21T15:04:55.751Z,100583.53
2023-04-21T15:07:25.528Z,100585.91
2023-04-21T15:09:55.891Z,100581.50
2023-04-21T15:12:26.768Z,100581.06
2023-04-21T15:14:56.895Z,100576.19
2023-04-21T15:17:27.234Z,100585.06
2023-04-21T15:19:58.679Z,100581.81
2023-04-21T15:22:28.872Z,100581.81
2023-04-21T15:24:59.581Z,100589.88
2023-04-21T15:27:30.584Z,100591.06
2023-04-21T15:30:00.377Z,100588.63
2023-04-21T15:32:31.884Z,100586.59
2023-04-21T15:35:04.197Z,100586.22
2023-04-21T15:37:34.251Z,100595.06
2023-04-21T15:40:05.210Z,100597.88
2023-04-21T15:42:35.468Z,100586.16
2023-04-21T15:45:06.545Z,100591.41
2023-04-21T15:47:36.397Z,100587.75
2023-04-21T15:50:10.432Z,100598.25
2023-04-21T15:52:43.748Z,100597.81
2023-04-21T15:55:14.393Z,100589.75
2023-04-21T15:57:44.888Z,100593.75
2023-04-21T16:00:20.025Z,100584.88
2023-04-21T16:02:50.694Z,100588.88
2023-04-21T16:05:27.507Z,100595.31
2023-04-21T16:07:58.899Z,100593.31
2023-04-21T16:10:29.460Z,100588.84
2023-04-21T16:12:59.801Z,100587.22
2023-04-21T16:15:30.422Z,100587.63
2023-04-21T16:18:02.555Z,100597.28
2023-04-21T16:20:35.132Z,100606.13
2023-04-21T16:23:06.340Z,100595.25
2023-04-21T16:25:36.757Z,100596.44
2023-04-21T16:28:07.733Z,100596.81
2023-04-21T16:30:38.777Z,100601.66
2023-04-21T16:33:09.808Z,100604.06
2023-04-21T16:35:42.122Z,100600.41
2023-04-21T16:38:12.543Z,100595.97
2023-04-21T16:40:42.864Z,100593.53
2023-04-21T16:43:13.483Z,100594.69
2023-04-21T16:45:43.874Z,100604.38
2023-04-21T16:48:14.632Z,100599.91
2023-04-21T16:50:46.437Z,100595.47
2023-04-21T16:53:16.184Z,100593.84
2023-04-21T16:55:46.906Z,100589.38
2023-04-21T16:58:16.886Z,100587.78
2023-04-21T17:00:47.214Z,100593.00
2023-04-21T17:03:18.463Z,100589.34
2023-04-21T17:05:51.268Z,100588.56
2023-04-21T17:08:21.520Z,100596.59
2023-04-21T17:10:51.883Z,100598.63
2023-04-21T17:13:22.128Z,100599.81
2023-04-21T17:15:52.724Z,100603.00
2023-04-21T17:18:23.232Z,100580.81
2023-04-21T17:20:55.224Z,100597.75
2023-04-21T17:23:25.309Z,100602.16
2023-04-21T17:25:55.056Z,100609.00
2023-04-21T17:28:25.516Z,100605.75
2023-04-21T17:31:03.557Z,100608.13
2023-04-21T17:33:44.244Z,100607.72
2023-04-21T17:36:17.182Z,100606.91
2023-04-21T17:38:47.906Z,100601.66
2023-04-21T17:41:18.376Z,100609.28
2023-04-21T17:43:48.499Z,100604.06
2023-04-21T17:46:19.017Z,100601.22
2023-04-21T17:48:49.421Z,100593.16
2023-04-21T17:51:21.255Z,100589.50
2023-04-21T17:53:51.111Z,100599.16
2023-04-21T17:56:21.004Z,100601.19
2023-04-21T17:58:51.194Z,100601.56
2023-04-21T18:01:21.442Z,100585.81
2023-04-21T18:03:54.179Z,100589.03
2023-04-21T18:06:27.800Z,100586.59
2023-04-21T18:08:58.340Z,100596.25
2023-04-21T18:11:28.114Z,100593.44
2023-04-21T18:13:58.380Z,100596.25
2023-04-21T18:16:42.290Z,100605.91
2023-04-21T18:19:12.226Z,100603.50
2023-04-21T18:21:44.343Z,100605.50
2023-04-21T18:24:14.757Z,100613.16
2023-04-21T18:26:46.758Z,100613.50
2023-04-21T18:29:18.121Z,100621.56
2023-04-21T18:31:48.437Z,100614.31
2023-04-21T18:34:18.850Z,100623.13
2023-04-21T18:36:50.854Z,100625.16
2023-04-21T18:39:20.620Z,100621.91
2023-04-21T18:41:52.081Z,100617.44
2023-04-21T18:44:22.506Z,100618.63
2023-04-21T18:47:04.115Z,100613.38
2023-04-21T18:49:34.520Z,100627.06
2023-04-21T18:52:06.767Z,100632.69
2023-04-21T18:54:37.057Z,100633.09
2023-04-21T18:57:08.607Z,100627.00
2023-04-21T18:59:39.225Z,100620.91
2023-04-21T19:02:09.642Z,100625.75
2023-04-21T19:04:39.667Z,100627.75
2023-04-21T19:07:12.961Z,100616.84
2023-04-21T19:09:43.431Z,100626.50
2023-04-21T19:12:14.825Z,100629.72
2023-04-21T19:14:47.654Z,100630.91
2023-04-21T19:17:17.793Z,100636.09
2023-04-21T19:19:47.402Z,100638.50
2023-04-21T19:22:20.356Z,100639.31
2023-04-21T19:24:51.774Z,100651.78
2023-04-21T19:27:21.836Z,100648.53
2023-04-21T19:29:52.105Z,100648.94
2023-04-21T19:32:22.472Z,100645.66
2023-04-21T19:34:52.400Z,100643.22
2023-04-21T19:37:24.854Z,100647.25
2023-04-21T19:39:54.992Z,100654.88
2023-04-21T19:42:25.436Z,100656.91
2023-04-21T19:44:55.895Z,100644.34
2023-04-21T19:47:26.245Z,100639.94
2023-04-21T19:49:56.307Z,100640.72
2023-04-21T19:52:28.233Z,100634.66
2023-04-21T19:54:58.702Z,100635.47
2023-04-21T19:57:28.506Z,100636.66
2023-04-21T19:59:58.642Z,100628.56
2023-04-21T20:02:43.762Z,100632.63
2023-04-21T20:05:13.867Z,100643.06
2023-04-21T20:07:46.468Z,100630.97
2023-04-21T20:10:16.774Z,100626.53
2023-04-21T20:12:47.085Z,100624.06
2023-04-21T20:15:17.478Z,100618.03
2023-04-21T20:17:49.428Z,100614.38
2023-04-21T20:20:19.791Z,100611.94
2023-04-21T20:22:52.014Z,100611.13
2023-04-21T20:25:22.560Z,100612.69
2023-04-21T20:27:52.922Z,100619.53
2023-04-21T20:30:23.551Z,100623.53
2023-04-21T20:32:54.028Z,100623.09
2023-04-21T20:35:24.099Z,100629.13
2023-04-21T20:37:56.376Z,100635.16
2023-04-21T20:40:25.819Z,100637.13
2023-04-21T20:42:55.797Z,100640.34
2023-04-21T20:45:26.626Z,100635.09
2023-04-21T20:47:57.558Z,100641.09
2023-04-21T20:50:28.217Z,100637.84
2023-04-21T20:53:00.569Z,100641.88
2023-04-21T20:55:30.672Z,100641.44
2023-04-21T20:58:01.212Z,100641.00
2023-04-21T21:00:33.255Z,100645.81
2023-04-21T21:03:04.317Z,100643.38
2023-04-21T21:05:35.034Z,100649.38
2023-04-21T21:08:06.430Z,100645.28
2023-04-21T21:10:36.161Z,100637.19
2023-04-21T21:13:10.229Z,100631.50
2023-04-21T21:15:40.570Z,100634.72
2023-04-21T21:18:10.558Z,100629.88
2023-04-21T21:20:40.531Z,100619.00
2023-04-21T21:23:12.424Z,100617.38
2023-04-21T21:25:42.111Z,100614.94
2023-04-21T21:28:12.105Z,100619.75
2023-04-21T21:30:42.400Z,100622.56
2023-04-21T21:33:12.190Z,100615.28
2023-04-21T21:35:43.195Z,100618.94
2023-04-21T21:38:14.969Z,100616.91
2023-04-21T21:40:44.620Z,100618.94
2023-04-21T21:43:14.378Z,100618.09
2023-04-21T21:45:44.884Z,100608.84
2023-04-21T21:48:17.128Z,100613.66
2023-04-21T21:50:47.204Z,100607.22
2023-04-21T21:53:19.255Z,100603.56
2023-04-21T21:55:49.273Z,100597.16
2023-04-21T21:58:19.163Z,100598.31
2023-04-21T22:00:52.224Z,100597.88
2023-04-21T22:03:22.862Z,100585.81
2023-04-21T22:05:53.077Z,100587.00
2023-04-21T22:08:25.219Z,100587.41
2023-04-21T22:10:55.355Z,100588.59
2023-04-21T22:13:25.374Z,100580.50
2023-04-21T22:15:55.436Z,100578.44
2023-04-21T22:18:25.733Z,100577.63
2023-04-21T22:20:55.732Z,100575.97
2023-04-21T22:23:28.360Z,100589.66
2023-04-21T22:25:58.884Z,100580.75
2023-04-21T22:28:29.405Z,100584.31
2023-04-21T22:30:59.592Z,100581.91
2023-04-21T22:33:29.940Z,100583.81
2023-04-21T22:36:00.272Z,100576.50
2023-04-21T22:38:32.659Z,100584.50
2023-04-21T22:41:03.145Z,100584.06
2023-04-21T22:43:33.545Z,100591.72
2023-04-21T22:46:04.470Z,100594.91
2023-04-21T22:48:36.629Z,100582.81
2023-04-21T22:51:07.591Z,100585.63
2023-04-21T22:53:38.921Z,100588.44
2023-04-21T22:56:09.846Z,100592.09
2023-04-21T22:58:40.355Z,100591.28
2023-04-21T23:01:10.658Z,100597.72
2023-04-21T23:03:40.856Z,100594.91
2023-04-21T23:06:11.503Z,100594.53
2023-04-21T23:08:43.260Z,100592.91
2023-04-21T23:11:13.957Z,100592.91
2023-04-21T23:13:43.762Z,100594.09
2023-04-21T23:16:13.789Z,100601.72
2023-04-21T23:18:43.842Z,100606.19
2023-04-21T23:21:19.608Z,100599.72
2023-04-21T23:23:51.624Z,100602.91
2023-04-21T23:26:22.521Z,100598.47
2023-04-21T23:28:52.972Z,100598.84
2023-04-21T23:31:22.841Z,100598.03
2023-04-21T23:33:52.717Z,100600.84
2023-04-21T23:36:22.308Z,100599.59
2023-04-21T23:38:54.434Z,100601.59
2023-04-21T23:41:24.729Z,100595.53
2023-04-21T23:43:54.344Z,100596.25
2023-04-21T23:46:24.343Z,100599.06
2023-04-21T23:48:54.507Z,100597.81
2023-04-21T23:51:25.387Z,100590.94
2023-04-21T23:53:57.598Z,100600.19
2023-04-21T23:56:27.378Z,100596.91
2023-04-21T23:58:57.423Z,100598.09
